Accueil
METAR-TAF:

METAR-TAF

Aéroports :

Plate-forme pétrolière

Goeree Le, Pays-Bas

latitude: 51-55-33N, longitude: 3-40-12E, altitude: 19 m

Observation

Le bulletin a été fait il y a 36 minutes, à 10:55 UTC
Vent 10 kt de sud-ouest
Température 14°C
Humidité 67%
Pression 1032 hPa
Visibilité 10 km ou plus

METAR: EHSC 201055Z AUTO 22010KT 9999 ///////// 14/08 Q1032 W16/H4

Heure: 13:31 (11:31 UTC)


TAF: absent

Observations et prévisions météorologiques de plus de 4000 aéroports (messages METAR et TAF).

Les stations disponibles sont représentées par des disques jaunes et rouges sur la carte.

Passer la souris dessus pour voir le nom de la station.

Cliquer dessus pour voir les observations et prévisions météorologiques.

Pour changer de carte: cliquez sur les boutons verts avec une croix noire pour zoomer, sur le bouton vert avec un tiret pour effectuer un zoom arrière, ou sur les flèches vertes pour les cartes adjacentes.


METAR-TAF: